Airfield :
LOGIN :

Register | Disclaimer

   EN    FR    IT 

 










Legend :    VFR   Marginal VFR   IFR   Intensive IFR   Very Intensive IFR
Visi :
Ceiling :
>= 8 km
>= 3000ft
5 to 8 km
1000 to 3000 ft
1500m to 5 km
500 to 1000 ft
800 to 1500m
200 to 500 ft
< 800m
< 200 ft
Symbols :   Thunderstorms  Fog  Heavy snow  Heavy precipitations  Wind > 20 kt
SIGMETs :     Misc.  Thunderstorms  Icing  Turbulence  Mountain Waves  Volcanic Ashes






- Airport Elevation : 7 ft
- IATA code : XHE


LFTH - Hyeres

CURRENT METAR :
  • 041900Z AUTO 27009KT CAVOK 28/12 Q1015 NOSIG

EXPIRED METARs :
  • 041830Z AUTO 26010KT CAVOK 29/12 Q1015 NOSIG
  • 041800Z AUTO 26012KT CAVOK 30/11 Q1015 NOSIG
  • 041730Z AUTO 24012KT CAVOK 28/13 Q1015 NOSIG
  • 041700Z AUTO 24014KT CAVOK 29/14 Q1015 NOSIG
  • 041630Z AUTO 23012KT CAVOK 29/16 Q1015 NOSIG

TAF TAF LFTH
Valid from the 04 at 15:00 until the 05 at 15:00 UTC


041400Z 0415/0515 22013KT CAVOK
BECMG 0418/0420 VRB05KT
BECMG 0507/0509 18010KT



MET'MAP, your aeronautical weather chart ! - Copyright ORBIFLY December 2007 - Disclaimer

ORBIFLY MET'MAP TEAM :

Programming & Development : Alexandra Zaïnal
Concept & original design : Baudouin d'Aumeries
Assistance for programming : Marc-Olivier Méhu
Technical & hardware support : Manuel Goepfert

Contact : metmap@orbifly.com




SOURCES & CREDITS :

   NOAA